Time;durP1;ratioP1;P1;durP2;ratioP2;P2;SDS_P1;SDS_P2;PMS_P1;PMS_P2;Temp;Humidity;BMP_temperature;BMP_pressure;BME280_temperature;BME280_humidity;BME280_pressure;Samples;Min_cycle;Max_cycle;Signal;HPM_P1;HPM_P2
2023/12/07 00:01:51;;;;;;;7.17;4.95;;;;;;;;;;1853989;77;21348;-65
2023/12/07 00:04:20;;;;;;;8.65;4.55;;;;;;;;;;1853889;76;21268;-64
2023/12/07 00:06:48;;;;;;;9.65;4.70;;;;;;;;;;1853874;77;21231;-64
2023/12/07 00:09:17;;;;;;;5.55;3.33;;;;;;;;;;1853904;77;21276;-64
2023/12/07 00:11:45;;;;;;;7.28;4.95;;;;;;;;;;1853884;76;21231;-64
2023/12/07 00:14:14;;;;;;;6.17;3.77;;;;;;;;;;1853856;76;21284;-64
2023/12/07 00:16:43;;;;;;;7.90;4.20;;;;;;;;;;1853929;77;21048;-64
2023/12/07 00:19:11;;;;;;;6.20;4.10;;;;;;;;;;1853977;77;21195;-64
2023/12/07 00:21:40;;;;;;;7.47;4.90;;;;;;;;;;1853855;76;21288;-65
2023/12/07 00:24:09;;;;;;;7.70;4.75;;;;;;;;;;1853950;76;21268;-64
2023/12/07 00:26:38;;;;;;;6.12;4.60;;;;;;;;;;1853833;77;21231;-64
2023/12/07 00:29:06;;;;;;;6.62;4.17;;;;;;;;;;1853936;76;21203;-64
2023/12/07 00:31:35;;;;;;;6.35;4.30;;;;;;;;;;1853865;76;21407;-65
2023/12/07 00:34:04;;;;;;;6.22;2.92;;;;;;;;;;1853948;77;21573;-65
2023/12/07 00:36:33;;;;;;;7.15;4.42;;;;;;;;;;1853868;76;21673;-65
2023/12/07 00:39:04;;;;;;;5.87;3.60;;;;;;;;;;1853776;76;21423;-65
2023/12/07 00:41:32;;;;;;;6.65;3.98;;;;;;;;;;1853932;77;21093;-64
2023/12/07 00:44:02;;;;;;;16.57;5.80;;;;;;;;;;1853896;77;21284;-64
2023/12/07 00:46:30;;;;;;;7.83;4.12;;;;;;;;;;1853910;77;21268;-65
2023/12/07 00:48:59;;;;;;;7.28;5.08;;;;;;;;;;1853825;76;21284;-65
2023/12/07 00:51:28;;;;;;;10.58;4.67;;;;;;;;;;1853868;76;21277;-64
2023/12/07 00:53:56;;;;;;;9.98;5.80;;;;;;;;;;1853962;76;21394;-64
2023/12/07 00:56:25;;;;;;;9.13;5.40;;;;;;;;;;1853874;77;21426;-65
2023/12/07 00:58:54;;;;;;;10.18;3.80;;;;;;;;;;1853861;76;21214;-64
2023/12/07 01:01:23;;;;;;;10.35;4.25;;;;;;;;;;1853864;77;21244;-65
2023/12/07 01:03:52;;;;;;;9.68;5.53;;;;;;;;;;1853912;77;21337;-65
2023/12/07 01:06:20;;;;;;;9.33;4.70;;;;;;;;;;1854007;77;21289;-65
2023/12/07 01:08:49;;;;;;;7.90;5.15;;;;;;;;;;1853807;76;21362;-65
2023/12/07 01:11:18;;;;;;;11.10;5.62;;;;;;;;;;1853889;76;21154;-65
2023/12/07 01:13:46;;;;;;;8.78;5.12;;;;;;;;;;1853786;76;21287;-65
2023/12/07 01:16:15;;;;;;;9.20;5.15;;;;;;;;;;1853802;76;21304;-65
2023/12/07 01:18:44;;;;;;;8.80;4.75;;;;;;;;;;1853811;76;21197;-65
2023/12/07 01:21:13;;;;;;;5.58;3.98;;;;;;;;;;1853844;76;21101;-65
2023/12/07 01:23:42;;;;;;;9.58;4.95;;;;;;;;;;1853802;77;21288;-65
2023/12/07 01:26:11;;;;;;;8.88;5.15;;;;;;;;;;1853807;77;21215;-65
2023/12/07 01:28:40;;;;;;;6.25;4.58;;;;;;;;;;1853822;77;21167;-65
2023/12/07 01:31:08;;;;;;;12.78;5.37;;;;;;;;;;1853870;76;21427;-65
2023/12/07 01:33:37;;;;;;;10.65;5.15;;;;;;;;;;1853801;77;21296;-65
2023/12/07 01:36:06;;;;;;;8.75;5.50;;;;;;;;;;1853803;77;21275;-65
2023/12/07 01:38:35;;;;;;;9.75;5.47;;;;;;;;;;1853784;77;21398;-65
2023/12/07 01:41:04;;;;;;;10.23;5.22;;;;;;;;;;1853892;77;21118;-65
2023/12/07 01:43:32;;;;;;;8.28;4.50;;;;;;;;;;1853848;76;21190;-64
2023/12/07 01:46:01;;;;;;;9.08;5.45;;;;;;;;;;1854081;77;21280;-65
2023/12/07 01:48:30;;;;;;;9.83;4.85;;;;;;;;;;1853901;77;21360;-65
2023/12/07 01:50:59;;;;;;;7.80;3.98;;;;;;;;;;1853930;77;21393;-65
2023/12/07 01:53:29;;;;;;;6.47;3.92;;;;;;;;;;1854004;77;21415;-64
2023/12/07 01:55:58;;;;;;;9.50;4.45;;;;;;;;;;1876478;76;21489;-65
2023/12/07 01:58:27;;;;;;;8.10;4.70;;;;;;;;;;1881104;76;21215;-65
2023/12/07 02:00:56;;;;;;;11.25;5.03;;;;;;;;;;1881111;76;21288;-65
2023/12/07 02:03:24;;;;;;;5.97;4.40;;;;;;;;;;1881149;76;21274;-65
2023/12/07 02:05:53;;;;;;;6.40;4.10;;;;;;;;;;1881149;76;21146;-65
2023/12/07 02:08:22;;;;;;;10.20;4.72;;;;;;;;;;1881166;76;21409;-64
2023/12/07 02:10:52;;;;;;;6.05;3.40;;;;;;;;;;1881117;76;21297;-65
2023/12/07 02:13:21;;;;;;;5.55;3.62;;;;;;;;;;1881162;76;21313;-65
2023/12/07 02:15:54;;;;;;;7.30;4.92;;;;;;;;;;1881145;76;21162;-64
2023/12/07 02:18:21;;;;;;;9.50;4.58;;;;;;;;;;1880386;75;21754;-65
2023/12/07 02:20:54;;;;;;;5.62;4.40;;;;;;;;;;1880309;76;21230;-65
2023/12/07 02:23:24;;;;;;;7.83;5.30;;;;;;;;;;1881033;76;21276;-65
2023/12/07 02:25:53;;;;;;;8.38;4.17;;;;;;;;;;1881271;76;21199;-65
2023/12/07 02:28:25;;;;;;;6.95;4.50;;;;;;;;;;1881187;76;21288;-64
2023/12/07 02:30:54;;;;;;;7.83;4.62;;;;;;;;;;1879435;74;21442;-65
2023/12/07 02:33:23;;;;;;;7.90;4.33;;;;;;;;;;1847056;78;21359;-65
2023/12/07 02:35:52;;;;;;;7.50;4.90;;;;;;;;;;1880090;76;21222;-65
2023/12/07 02:38:22;;;;;;;8.28;5.22;;;;;;;;;;1880148;75;21127;-64
2023/12/07 02:40:51;;;;;;;7.22;4.28;;;;;;;;;;1880268;76;21279;-65
2023/12/07 02:43:20;;;;;;;8.93;5.12;;;;;;;;;;1880010;75;21392;-64
2023/12/07 02:45:49;;;;;;;9.00;4.80;;;;;;;;;;1880089;76;21260;-65
2023/12/07 02:48:17;;;;;;;8.05;5.03;;;;;;;;;;1880026;76;21285;-65
2023/12/07 02:50:46;;;;;;;7.47;4.58;;;;;;;;;;1880166;75;21376;-65
2023/12/07 02:53:15;;;;;;;10.18;5.25;;;;;;;;;;1880040;75;21302;-65
2023/12/07 02:55:43;;;;;;;9.10;5.10;;;;;;;;;;1880087;76;21285;-65
2023/12/07 02:58:12;;;;;;;8.15;4.58;;;;;;;;;;1880152;76;21331;-65
2023/12/07 03:00:41;;;;;;;8.48;5.45;;;;;;;;;;1880040;76;21274;-65
2023/12/07 03:03:09;;;;;;;5.45;4.40;;;;;;;;;;1880067;76;21211;-64
2023/12/07 03:05:38;;;;;;;9.48;5.47;;;;;;;;;;1880092;76;21066;-65
2023/12/07 03:08:07;;;;;;;9.85;5.60;;;;;;;;;;1880045;76;21329;-65
2023/12/07 03:10:35;;;;;;;9.15;5.03;;;;;;;;;;1880207;76;21248;-65
2023/12/07 03:13:04;;;;;;;12.53;5.90;;;;;;;;;;1880122;76;21272;-66
2023/12/07 03:15:33;;;;;;;7.80;4.65;;;;;;;;;;1880069;76;21135;-65
2023/12/07 03:18:01;;;;;;;8.05;4.75;;;;;;;;;;1880052;76;21366;-65
2023/12/07 03:20:30;;;;;;;12.70;4.00;;;;;;;;;;1880073;76;21269;-65
2023/12/07 03:22:59;;;;;;;7.80;4.40;;;;;;;;;;1880012;76;21220;-65
2023/12/07 03:25:27;;;;;;;7.03;5.20;;;;;;;;;;1880100;75;21152;-65
2023/12/07 03:27:56;;;;;;;8.78;4.58;;;;;;;;;;1880104;76;21127;-65
2023/12/07 03:30:25;;;;;;;10.30;4.97;;;;;;;;;;1880030;74;21338;-65
2023/12/07 03:32:53;;;;;;;7.80;5.42;;;;;;;;;;1880064;76;21147;-65
2023/12/07 03:35:22;;;;;;;9.18;5.72;;;;;;;;;;1880062;75;21250;-65
2023/12/07 03:37:51;;;;;;;9.45;5.12;;;;;;;;;;1880152;76;21249;-65
2023/12/07 03:40:19;;;;;;;10.45;5.45;;;;;;;;;;1880207;76;21135;-65
2023/12/07 03:42:48;;;;;;;9.55;5.40;;;;;;;;;;1880048;75;21154;-65
2023/12/07 03:45:16;;;;;;;10.78;6.12;;;;;;;;;;1880041;76;21284;-65
2023/12/07 03:47:45;;;;;;;7.95;4.95;;;;;;;;;;1880165;76;21170;-65
2023/12/07 03:50:13;;;;;;;11.48;6.03;;;;;;;;;;1880090;75;21140;-65
2023/12/07 03:52:42;;;;;;;8.60;5.28;;;;;;;;;;1880065;76;21111;-65
2023/12/07 03:55:11;;;;;;;8.50;5.58;;;;;;;;;;1880116;75;21270;-65
2023/12/07 03:57:39;;;;;;;6.78;4.47;;;;;;;;;;1880252;76;21322;-65
2023/12/07 04:00:10;;;;;;;8.75;4.67;;;;;;;;;;1880280;76;21219;-65
2023/12/07 04:02:39;;;;;;;9.75;5.37;;;;;;;;;;1880134;76;21191;-65
2023/12/07 04:05:08;;;;;;;6.62;4.97;;;;;;;;;;1880075;76;21326;-65
2023/12/07 04:07:37;;;;;;;9.30;4.67;;;;;;;;;;1879976;76;21253;-65
2023/12/07 04:10:06;;;;;;;10.28;5.55;;;;;;;;;;1880053;76;21222;-65
2023/12/07 04:12:34;;;;;;;8.35;5.03;;;;;;;;;;1880074;76;21257;-65
2023/12/07 04:15:03;;;;;;;9.70;6.20;;;;;;;;;;1880075;76;21139;-65
2023/12/07 04:17:32;;;;;;;8.43;5.35;;;;;;;;;;1880133;75;21149;-65
2023/12/07 04:20:01;;;;;;;8.20;5.03;;;;;;;;;;1880039;75;21214;-65
2023/12/07 04:22:29;;;;;;;8.65;5.10;;;;;;;;;;1880062;75;21270;-64
2023/12/07 04:24:58;;;;;;;10.13;5.95;;;;;;;;;;1879985;75;21158;-64
2023/12/07 04:27:27;;;;;;;13.08;5.25;;;;;;;;;;1879997;76;21408;-65
2023/12/07 04:29:56;;;;;;;10.45;5.83;;;;;;;;;;1879833;75;21223;-64
2023/12/07 04:32:25;;;;;;;8.60;5.55;;;;;;;;;;1879424;75;21250;-65
2023/12/07 04:34:54;;;;;;;9.33;5.70;;;;;;;;;;1879477;75;21312;-65
2023/12/07 04:37:23;;;;;;;10.40;4.85;;;;;;;;;;1879370;75;21220;-64
2023/12/07 04:39:52;;;;;;;12.68;5.00;;;;;;;;;;1879412;75;21190;-65
2023/12/07 04:42:20;;;;;;;16.32;6.00;;;;;;;;;;1879326;76;21304;-65
2023/12/07 04:44:49;;;;;;;16.15;7.45;;;;;;;;;;1879386;76;21271;-64
2023/12/07 04:47:18;;;;;;;12.65;7.25;;;;;;;;;;1879432;76;21259;-65
2023/12/07 04:49:46;;;;;;;9.58;4.83;;;;;;;;;;1879356;76;21271;-65
2023/12/07 04:52:15;;;;;;;9.35;5.58;;;;;;;;;;1879472;76;21306;-65
2023/12/07 04:54:44;;;;;;;10.15;5.67;;;;;;;;;;1879412;75;21388;-65
2023/12/07 04:57:12;;;;;;;11.48;5.42;;;;;;;;;;1879493;76;21131;-64
2023/12/07 04:59:41;;;;;;;6.10;4.80;;;;;;;;;;1879404;75;21230;-65
2023/12/07 05:02:10;;;;;;;11.15;5.78;;;;;;;;;;1879317;76;21412;-65
2023/12/07 05:04:39;;;;;;;9.90;6.50;;;;;;;;;;1879417;75;21390;-64
2023/12/07 05:07:08;;;;;;;6.15;3.95;;;;;;;;;;1879352;76;21277;-65
2023/12/07 05:09:36;;;;;;;5.67;3.85;;;;;;;;;;1879276;76;21398;-65
2023/12/07 05:12:06;;;;;;;9.73;4.45;;;;;;;;;;1879383;76;21139;-65
2023/12/07 05:14:34;;;;;;;10.48;5.65;;;;;;;;;;1879424;76;21190;-65
2023/12/07 05:17:03;;;;;;;12.25;6.22;;;;;;;;;;1879443;76;21218;-65
2023/12/07 05:19:32;;;;;;;12.95;6.85;;;;;;;;;;1879423;75;21261;-65
2023/12/07 05:22:00;;;;;;;10.63;6.95;;;;;;;;;;1879353;76;21297;-65
2023/12/07 05:24:31;;;;;;;16.82;8.98;;;;;;;;;;1879377;75;21270;-65
2023/12/07 05:26:59;;;;;;;12.40;7.20;;;;;;;;;;1879404;76;21708;-65
2023/12/07 05:29:28;;;;;;;9.25;5.60;;;;;;;;;;1879534;76;21271;-64
2023/12/07 05:31:57;;;;;;;11.65;6.60;;;;;;;;;;1879366;75;21368;-65
2023/12/07 05:34:26;;;;;;;11.60;6.78;;;;;;;;;;1879469;75;21393;-64
2023/12/07 05:36:54;;;;;;;9.40;5.72;;;;;;;;;;1879498;75;21138;-65
2023/12/07 05:39:23;;;;;;;19.02;8.23;;;;;;;;;;1879468;75;21145;-65
2023/12/07 05:41:52;;;;;;;10.50;6.33;;;;;;;;;;1879376;75;21194;-65
2023/12/07 05:44:22;;;;;;;17.45;7.58;;;;;;;;;;1879363;76;21258;-64
2023/12/07 05:46:51;;;;;;;9.33;6.85;;;;;;;;;;1879463;76;21266;-64
2023/12/07 05:49:22;;;;;;;10.20;6.47;;;;;;;;;;1879419;76;21078;-65
2023/12/07 05:51:49;;;;;;;15.28;6.33;;;;;;;;;;1879465;76;21778;-64
2023/12/07 05:54:20;;;;;;;15.40;6.60;;;;;;;;;;1879432;76;21210;-64
2023/12/07 05:56:49;;;;;;;9.70;5.95;;;;;;;;;;1879291;76;21722;-64
2023/12/07 05:59:17;;;;;;;11.65;6.80;;;;;;;;;;1879436;76;21340;-65
2023/12/07 06:01:46;;;;;;;11.22;6.10;;;;;;;;;;1879414;76;21318;-65
2023/12/07 06:04:16;;;;;;;13.72;8.80;;;;;;;;;;1879436;75;21239;-64
2023/12/07 06:06:44;;;;;;;16.60;9.93;;;;;;;;;;1879536;75;21266;-65
2023/12/07 06:09:13;;;;;;;14.30;10.18;;;;;;;;;;1879430;75;21397;-65
2023/12/07 06:11:42;;;;;;;21.97;11.57;;;;;;;;;;1879650;76;21202;-64
2023/12/07 06:14:11;;;;;;;19.12;9.23;;;;;;;;;;1879436;76;21276;-65
2023/12/07 06:16:39;;;;;;;16.02;9.43;;;;;;;;;;1879395;76;21382;-65
2023/12/07 06:19:08;;;;;;;13.83;8.93;;;;;;;;;;1879472;75;21332;-64
2023/12/07 06:21:37;;;;;;;8.78;5.85;;;;;;;;;;1879524;76;21384;-65
2023/12/07 06:24:06;;;;;;;12.18;4.92;;;;;;;;;;1879563;75;21241;-65
2023/12/07 06:26:35;;;;;;;11.25;6.72;;;;;;;;;;1879564;75;21206;-64
2023/12/07 06:29:04;;;;;;;10.20;5.53;;;;;;;;;;1879396;76;21383;-64
2023/12/07 06:31:33;;;;;;;10.43;6.10;;;;;;;;;;1880484;75;21210;-64
2023/12/07 06:34:02;;;;;;;8.98;5.37;;;;;;;;;;1882578;75;21182;-64
2023/12/07 06:36:31;;;;;;;11.80;6.00;;;;;;;;;;1882621;76;21195;-64
2023/12/07 06:39:00;;;;;;;7.25;4.80;;;;;;;;;;1882693;76;21286;-65
2023/12/07 06:41:28;;;;;;;10.80;7.12;;;;;;;;;;1882558;76;21326;-64
2023/12/07 06:43:57;;;;;;;8.95;4.83;;;;;;;;;;1882480;76;21400;-64
2023/12/07 06:46:26;;;;;;;12.60;8.75;;;;;;;;;;1882620;76;21381;-65
2023/12/07 06:48:55;;;;;;;12.37;8.00;;;;;;;;;;1882606;75;21318;-65
2023/12/07 06:51:23;;;;;;;7.17;5.28;;;;;;;;;;1882506;76;21246;-64
2023/12/07 06:53:52;;;;;;;3.90;3.08;;;;;;;;;;1882717;76;21270;-64
2023/12/07 06:56:21;;;;;;;5.65;4.53;;;;;;;;;;1882636;76;21397;-64
2023/12/07 06:58:50;;;;;;;5.50;4.30;;;;;;;;;;1882705;76;21270;-64
2023/12/07 07:01:19;;;;;;;7.85;2.92;;;;;;;;;;1882558;75;21275;-64
2023/12/07 07:03:48;;;;;;;8.38;4.72;;;;;;;;;;1882608;75;21280;-64
2023/12/07 07:06:16;;;;;;;7.00;4.75;;;;;;;;;;1882564;75;21384;-64
2023/12/07 07:08:45;;;;;;;5.92;3.98;;;;;;;;;;1882519;75;21074;-64
2023/12/07 07:11:14;;;;;;;7.87;4.15;;;;;;;;;;1882679;75;21712;-64
2023/12/07 07:13:43;;;;;;;7.65;4.30;;;;;;;;;;1882571;75;21087;-64
2023/12/07 07:16:12;;;;;;;6.35;4.25;;;;;;;;;;1882621;76;21311;-64
2023/12/07 07:18:41;;;;;;;9.23;4.95;;;;;;;;;;1882549;76;21314;-64
2023/12/07 07:21:09;;;;;;;6.83;3.87;;;;;;;;;;1882712;76;21262;-64
2023/12/07 07:23:38;;;;;;;6.53;3.30;;;;;;;;;;1882498;75;21300;-64
2023/12/07 07:26:08;;;;;;;5.03;2.80;;;;;;;;;;1882659;76;21313;-64
2023/12/07 07:28:36;;;;;;;8.33;4.67;;;;;;;;;;1882523;76;21190;-64
2023/12/07 07:31:05;;;;;;;7.10;3.95;;;;;;;;;;1882622;75;21273;-64
2023/12/07 07:33:34;;;;;;;5.60;2.90;;;;;;;;;;1879639;75;21166;-64
2023/12/07 07:36:02;;;;;;;6.05;3.65;;;;;;;;;;1879400;75;21268;-64
2023/12/07 07:38:31;;;;;;;3.62;2.67;;;;;;;;;;1879525;76;21254;-64
2023/12/07 07:41:00;;;;;;;4.08;2.12;;;;;;;;;;1879503;76;21147;-64
2023/12/07 07:43:28;;;;;;;7.97;5.15;;;;;;;;;;1879443;75;21142;-64
2023/12/07 07:45:57;;;;;;;6.83;4.83;;;;;;;;;;1879555;75;21286;-64
2023/12/07 07:48:26;;;;;;;8.10;4.55;;;;;;;;;;1879407;75;21589;-64
2023/12/07 07:50:55;;;;;;;7.83;4.08;;;;;;;;;;1879452;76;21370;-64
2023/12/07 07:53:23;;;;;;;5.87;3.30;;;;;;;;;;1879319;75;21225;-57
2023/12/07 07:55:52;;;;;;;11.22;5.47;;;;;;;;;;1879424;76;21218;-57
2023/12/07 07:58:21;;;;;;;5.62;3.10;;;;;;;;;;1879417;76;21154;-57
2023/12/07 08:00:51;;;;;;;8.20;4.47;;;;;;;;;;1879473;76;21147;-57
2023/12/07 08:03:20;;;;;;;5.10;3.17;;;;;;;;;;1879398;75;21375;-57
2023/12/07 08:05:49;;;;;;;5.90;3.70;;;;;;;;;;1879480;76;21173;-57
2023/12/07 08:08:17;;;;;;;2.98;2.30;;;;;;;;;;1878878;75;21135;-57
2023/12/07 08:10:46;;;;;;;6.20;4.28;;;;;;;;;;1877562;76;21162;-57
2023/12/07 08:13:15;;;;;;;7.67;3.98;;;;;;;;;;1877675;76;21155;-57
2023/12/07 08:15:44;;;;;;;10.18;6.28;;;;;;;;;;1877660;75;21226;-57
2023/12/07 08:18:14;;;;;;;7.70;4.42;;;;;;;;;;1877639;76;21270;-57
2023/12/07 08:20:43;;;;;;;3.60;2.45;;;;;;;;;;1877776;76;21201;-57
2023/12/07 08:23:11;;;;;;;3.47;2.37;;;;;;;;;;1877768;75;21083;-57
2023/12/07 08:25:40;;;;;;;7.28;3.60;;;;;;;;;;1877667;76;21071;-57
2023/12/07 08:28:09;;;;;;;4.22;2.42;;;;;;;;;;1877650;76;21075;-56
2023/12/07 08:30:37;;;;;;;4.92;3.42;;;;;;;;;;1877662;76;21004;-56
2023/12/07 08:33:06;;;;;;;4.85;3.85;;;;;;;;;;1877566;75;21130;-57
2023/12/07 08:35:35;;;;;;;6.00;3.90;;;;;;;;;;1877460;76;21151;-57
2023/12/07 08:38:04;;;;;;;3.80;2.35;;;;;;;;;;1877547;76;21071;-56
2023/12/07 08:40:33;;;;;;;3.37;2.05;;;;;;;;;;1877582;76;21035;-56
2023/12/07 08:43:02;;;;;;;2.65;2.27;;;;;;;;;;1877494;76;21215;-57
2023/12/07 08:45:30;;;;;;;4.08;3.25;;;;;;;;;;1877688;76;21127;-57
2023/12/07 08:47:59;;;;;;;4.40;2.77;;;;;;;;;;1877563;76;21368;-56
2023/12/07 08:50:28;;;;;;;4.97;3.30;;;;;;;;;;1877574;76;21071;-57
2023/12/07 08:52:57;;;;;;;4.70;3.10;;;;;;;;;;1877638;76;21155;-57
2023/12/07 08:55:35;;;;;;;2.45;1.60;;;;;;;;;;1877663;76;21571;-58
2023/12/07 08:58:12;;;;;;;2.40;2.00;;;;;;;;;;1876962;76;21102;-58
2023/12/07 09:00:52;;;;;;;2.17;1.98;;;;;;;;;;1877105;76;21162;-58
2023/12/07 09:03:31;;;;;;;1.67;1.42;;;;;;;;;;1877302;76;21202;-58
2023/12/07 09:06:10;;;;;;;2.20;1.87;;;;;;;;;;1877028;76;21102;-58
2023/12/07 09:08:48;;;;;;;12.95;2.20;;;;;;;;;;1875668;76;21011;-58
2023/12/07 09:11:26;;;;;;;2.83;2.10;;;;;;;;;;1877777;76;21210;-58
2023/12/07 09:13:58;;;;;;;3.80;1.70;;;;;;;;;;1878196;75;21161;-58
2023/12/07 09:16:28;;;;;;;4.17;2.67;;;;;;;;;;1879429;76;21774;-58
2023/12/07 09:18:56;;;;;;;3.87;3.17;;;;;;;;;;1879501;76;21494;-58
2023/12/07 09:21:25;;;;;;;4.00;3.20;;;;;;;;;;1879215;75;21103;-58
2023/12/07 09:23:54;;;;;;;2.62;2.25;;;;;;;;;;1879534;76;21078;-58
2023/12/07 09:26:23;;;;;;;6.70;2.72;;;;;;;;;;1879529;75;21039;-58
2023/12/07 09:28:51;;;;;;;3.33;2.90;;;;;;;;;;1879482;75;21095;-58
2023/12/07 09:31:20;;;;;;;5.22;2.10;;;;;;;;;;1879453;75;21260;-58
2023/12/07 09:33:48;;;;;;;3.62;2.08;;;;;;;;;;1881520;75;21150;-61
2023/12/07 09:36:26;;;;;;;2.27;1.60;;;;;;;;;;1881189;76;21126;-69
2023/12/07 09:38:50;;;;;;;7.10;2.72;;;;;;;;;;1880903;75;21150;-66
2023/12/07 09:41:20;;;;;;;2.20;1.80;;;;;;;;;;1881946;76;21296;-64
2023/12/07 09:43:49;;;;;;;2.25;1.45;;;;;;;;;;1881814;75;21140;-62
2023/12/07 09:46:18;;;;;;;6.05;2.90;;;;;;;;;;1881956;76;21156;-63
2023/12/07 09:48:48;;;;;;;3.67;1.72;;;;;;;;;;1881938;75;21245;-61
2023/12/07 09:51:17;;;;;;;3.27;1.98;;;;;;;;;;1881763;75;21128;-62
2023/12/07 09:53:46;;;;;;;6.00;3.83;;;;;;;;;;1882042;76;21308;-59
2023/12/07 09:56:14;;;;;;;3.85;2.35;;;;;;;;;;1881858;75;21039;-62
2023/12/07 09:58:43;;;;;;;3.08;2.27;;;;;;;;;;1881849;75;21091;-60
2023/12/07 10:01:14;;;;;;;4.17;2.75;;;;;;;;;;1882027;75;21204;-59
2023/12/07 10:03:42;;;;;;;1.25;1.15;;;;;;;;;;1881952;75;21603;-62
2023/12/07 10:06:11;;;;;;;2.00;1.90;;;;;;;;;;1881850;75;21159;-63
2023/12/07 10:08:40;;;;;;;2.08;1.87;;;;;;;;;;1882095;75;21182;-61
2023/12/07 10:11:09;;;;;;;1.60;1.35;;;;;;;;;;1881217;75;21157;-65
2023/12/07 10:15:28;;;;;;;5.37;2.60;;;6.60;96.40;;;;;;1956733;72;26011;-60
2023/12/07 11:12:11;;;;;;;5.00;3.10;;;6.30;97.30;;;;;;1959007;73;25780;-60
2023/12/07 11:14:39;;;;;;;;;;;;;;;;;;1920698;74;21150;-58
2023/12/07 11:17:07;;;;;;;3.75;2.15;;;;;;;;;;1916978;75;20221;-61
2023/12/07 11:19:39;;;;;;;7.25;4.70;;;;;;;;;;1917801;75;21086;-61
2023/12/07 11:22:08;;;;;;;6.20;2.98;;;;;;;;;;1917741;74;21185;-67
2023/12/07 11:24:36;;;;;;;6.28;3.83;;;;;;;;;;1913842;75;21149;-64
2023/12/07 11:27:05;;;;;;;2.83;2.50;;;;;;;;;;1907785;75;21091;-68
2023/12/07 11:29:36;;;;;;;1.72;1.60;;;;;;;;;;1915683;75;21130;-65
2023/12/07 11:33:58;;;;;;;8.00;2.72;;;6.90;96.30;;;;;;1941715;73;25481;-65
2023/12/07 11:36:28;;;;;;;7.62;4.53;;;6.70;97.00;;;;;;1897661;75;21537;-66
2023/12/07 11:39:11;;;;;;;5.20;3.37;;;6.60;97.10;;;;;;1900000;75;21345;-65
2023/12/07 11:41:45;;;;;;;8.93;2.58;;;6.60;97.00;;;;;;1877909;75;21197;-65
2023/12/07 11:44:14;;;;;;;5.08;2.60;;;6.50;97.10;;;;;;1894746;75;21079;-67
2023/12/07 11:46:43;;;;;;;4.95;3.05;;;6.50;97.10;;;;;;1906054;75;21648;-64
2023/12/07 11:49:14;;;;;;;7.42;3.55;;;6.50;97.10;;;;;;1916841;75;21197;-63
2023/12/07 11:51:43;;;;;;;5.83;3.47;;;6.50;97.20;;;;;;1895892;75;21209;-63
2023/12/07 11:54:13;;;;;;;4.05;2.65;;;6.50;97.30;;;;;;1908505;75;21314;-64
2023/12/07 11:56:42;;;;;;;3.90;2.95;;;6.40;97.20;;;;;;1917508;75;21326;-62
2023/12/07 11:59:11;;;;;;;4.62;2.80;;;6.40;97.40;;;;;;1915276;75;21054;-62
2023/12/07 12:01:40;;;;;;;8.25;4.08;;;6.40;97.30;;;;;;1884780;76;21076;-60
2023/12/07 12:04:11;;;;;;;6.37;3.77;;;6.40;97.40;;;;;;1885148;75;21654;-61
2023/12/07 12:07:38;;;;;;;6.80;4.28;;;6.40;97.30;;;;;;1958351;73;27618;-63
2023/12/07 12:10:08;;;;;;;9.08;4.95;;;6.40;97.60;;;;;;1917623;75;21549;-64
2023/12/07 12:12:37;;;;;;;6.17;3.77;;;6.40;97.60;;;;;;1917691;75;21070;-64
2023/12/07 12:15:07;;;;;;;4.08;3.50;;;6.40;97.60;;;;;;1917568;74;21156;-62
2023/12/07 12:17:36;;;;;;;7.33;4.35;;;6.40;97.60;;;;;;1917341;75;21075;-66
2023/12/07 12:20:06;;;;;;;8.43;3.42;;;6.40;97.60;;;;;;1917651;75;21173;-63
2023/12/07 12:22:38;;;;;;;1.72;1.62;;;6.40;97.50;;;;;;1917512;74;21174;-63
2023/12/07 12:25:08;;;;;;;6.37;3.40;;;6.40;97.50;;;;;;1916591;74;21532;-61
2023/12/07 12:27:37;;;;;;;12.55;3.85;;;6.30;97.60;;;;;;1917546;75;21150;-62
2023/12/07 12:30:07;;;;;;;4.40;2.67;;;6.40;97.60;;;;;;1917645;75;21211;-58
2023/12/07 12:32:46;;;;;;;3.50;2.47;;;6.40;97.70;;;;;;1917488;75;21035;-62
2023/12/07 12:35:16;;;;;;;2.83;2.25;;;6.40;97.60;;;;;;1917583;74;21154;-61
2023/12/07 12:37:46;;;;;;;5.17;3.85;;;6.30;97.60;;;;;;1917700;75;21018;-62
2023/12/07 12:40:20;;;;;;;4.78;3.55;;;6.30;97.70;;;;;;1916902;74;21251;-61
2023/12/07 12:42:51;;;;;;;3.75;3.27;;;6.30;97.60;;;;;;1917697;75;21146;-63
2023/12/07 12:45:21;;;;;;;6.45;3.52;;;6.30;97.70;;;;;;1917592;75;21109;-62
2023/12/07 12:47:50;;;;;;;5.00;3.02;;;6.30;97.70;;;;;;1917663;75;21178;-62
2023/12/07 12:50:39;;;;;;;5.30;3.20;;;6.30;97.70;;;;;;1917833;75;21264;-61
2023/12/07 12:53:10;;;;;;;2.95;2.58;;;6.30;97.80;;;;;;1917536;75;21175;-61
2023/12/07 12:55:41;;;;;;;5.90;4.20;;;6.20;97.80;;;;;;1917659;75;21316;-63
2023/12/07 12:58:11;;;;;;;4.30;3.47;;;6.20;97.80;;;;;;1917757;75;21320;-59
2023/12/07 13:00:41;;;;;;;3.80;2.67;;;6.20;97.90;;;;;;1917529;75;21120;-58
2023/12/07 13:03:13;;;;;;;2.70;2.45;;;6.20;97.90;;;;;;1917619;75;21281;-56
2023/12/07 13:05:41;;;;;;;4.67;2.80;;;6.20;97.90;;;;;;1917573;75;21201;-54
2023/12/07 13:08:10;;;;;;;6.53;3.98;;;6.20;98.00;;;;;;1905800;74;21332;-58
2023/12/07 13:10:40;;;;;;;6.80;2.83;;;6.20;98.00;;;;;;1905399;75;21134;-63
2023/12/07 13:13:09;;;;;;;5.37;3.10;;;6.20;98.00;;;;;;1886484;75;21125;-59
2023/12/07 13:15:38;;;;;;;2.83;2.15;;;6.20;97.90;;;;;;1872595;76;21272;-64
2023/12/07 13:18:08;;;;;;;7.03;4.12;;;6.20;98.00;;;;;;1872432;76;21157;-64
2023/12/07 13:20:37;;;;;;;6.70;4.78;;;6.20;98.00;;;;;;1872316;77;21053;-60
2023/12/07 13:23:06;;;;;;;7.35;3.87;;;6.20;98.00;;;;;;1872099;76;21419;-63
2023/12/07 13:25:35;;;;;;;5.40;3.75;;;6.30;98.00;;;;;;1872421;77;21213;-62
2023/12/07 13:28:05;;;;;;;4.72;3.52;;;6.20;98.00;;;;;;1872964;75;21303;-63
2023/12/07 13:30:35;;;;;;;3.08;2.20;;;6.30;98.10;;;;;;1872903;76;21093;-63
2023/12/07 13:33:05;;;;;;;16.17;7.80;;;6.30;98.10;;;;;;1872871;77;21158;-62
2023/12/07 13:35:34;;;;;;;5.10;3.77;;;6.30;98.00;;;;;;1872789;76;21213;-62
2023/12/07 13:38:03;;;;;;;4.20;2.52;;;6.30;98.10;;;;;;1872826;77;21276;-63
2023/12/07 13:40:33;;;;;;;2.30;1.27;;;6.20;98.10;;;;;;1872845;76;21375;-62
2023/12/07 13:43:03;;;;;;;5.12;2.77;;;6.20;98.10;;;;;;1872684;76;21214;-62
2023/12/07 13:45:32;;;;;;;2.00;1.60;;;6.20;98.10;;;;;;1872755;77;21157;-63
2023/12/07 13:48:01;;;;;;;7.42;2.87;;;6.20;98.20;;;;;;1872872;77;21249;-62
2023/12/07 13:50:30;;;;;;;4.22;2.52;;;6.20;98.20;;;;;;1872805;76;21194;-62
2023/12/07 13:52:59;;;;;;;4.03;2.15;;;6.20;98.20;;;;;;1872767;77;21424;-62
2023/12/07 13:55:29;;;;;;;6.70;3.60;;;6.20;98.30;;;;;;1872715;76;21710;-63
2023/12/07 13:57:59;;;;;;;3.40;3.10;;;6.20;98.30;;;;;;1872804;76;21389;-63
2023/12/07 14:00:28;;;;;;;6.08;3.00;;;6.20;98.40;;;;;;1872800;77;21190;-63
2023/12/07 14:02:57;;;;;;;5.85;3.47;;;6.20;98.40;;;;;;1872797;76;21122;-62
2023/12/07 14:05:27;;;;;;;10.68;4.00;;;6.20;98.40;;;;;;1872723;76;21089;-62
2023/12/07 14:07:56;;;;;;;4.00;2.55;;;6.20;98.30;;;;;;1878606;76;21153;-63
2023/12/07 14:10:26;;;;;;;5.70;4.10;;;6.20;98.40;;;;;;1882232;76;21129;-63
2023/12/07 14:12:55;;;;;;;6.83;4.12;;;6.20;98.40;;;;;;1882191;76;21258;-63
2023/12/07 14:15:24;;;;;;;4.17;2.00;;;6.20;98.40;;;;;;1882169;76;21141;-63
2023/12/07 14:17:54;;;;;;;4.50;3.40;;;6.20;98.40;;;;;;1882262;76;21322;-63
2023/12/07 14:20:25;;;;;;;4.00;2.60;;;6.20;98.40;;;;;;1882128;76;21178;-62
2023/12/07 14:22:54;;;;;;;11.12;3.95;;;6.20;98.30;;;;;;1882207;76;21146;-63
2023/12/07 14:25:24;;;;;;;8.53;4.10;;;6.20;98.30;;;;;;1882169;76;21209;-62
2023/12/07 14:27:53;;;;;;;6.33;3.92;;;6.20;98.30;;;;;;1882128;76;21326;-63
2023/12/07 14:30:22;;;;;;;5.92;3.75;;;6.20;98.30;;;;;;1882237;76;21290;-62
2023/12/07 14:32:54;;;;;;;4.78;3.98;;;6.20;98.30;;;;;;1882282;76;21380;-62
2023/12/07 14:35:25;;;;;;;8.50;3.52;;;6.30;98.30;;;;;;1882306;76;21274;-63
2023/12/07 14:37:54;;;;;;;9.33;4.58;;;6.30;98.30;;;;;;1882331;76;21222;-62
2023/12/07 14:40:24;;;;;;;4.85;3.37;;;6.30;98.30;;;;;;1882258;76;21328;-63
2023/12/07 14:42:53;;;;;;;8.73;4.40;;;6.30;98.20;;;;;;1882134;76;21073;-63
2023/12/07 14:45:22;;;;;;;7.80;4.15;;;6.30;98.30;;;;;;1882116;76;21282;-62
2023/12/07 14:47:51;;;;;;;5.33;4.15;;;6.30;98.30;;;;;;1882147;75;21271;-62
2023/12/07 14:50:21;;;;;;;8.50;4.55;;;6.30;98.20;;;;;;1882286;76;21270;-63
2023/12/07 14:52:50;;;;;;;4.67;3.83;;;6.30;98.20;;;;;;1882187;76;21147;-63
2023/12/07 14:55:19;;;;;;;8.35;4.60;;;6.30;98.20;;;;;;1882207;76;21203;-63
2023/12/07 14:57:50;;;;;;;5.15;3.72;;;6.30;98.20;;;;;;1882171;76;21293;-63
2023/12/07 15:00:20;;;;;;;11.83;4.92;;;6.40;98.20;;;;;;1882280;76;21303;-63
2023/12/07 15:02:49;;;;;;;10.38;5.37;;;6.40;98.30;;;;;;1882185;76;21145;-62
2023/12/07 15:05:19;;;;;;;7.80;4.87;;;6.40;98.10;;;;;;1882233;76;21266;-62
2023/12/07 15:07:48;;;;;;;10.10;4.37;;;6.40;98.10;;;;;;1882184;75;21198;-62
2023/12/07 15:10:18;;;;;;;8.38;5.28;;;6.40;98.10;;;;;;1882113;76;21275;-62
2023/12/07 15:12:47;;;;;;;12.80;5.62;;;6.40;98.10;;;;;;1882181;75;21311;-62
2023/12/07 15:15:17;;;;;;;8.40;5.50;;;6.40;98.10;;;;;;1882254;75;21161;-62
2023/12/07 15:17:47;;;;;;;8.95;5.60;;;6.40;98.10;;;;;;1882148;76;21332;-62
2023/12/07 15:20:16;;;;;;;11.55;7.17;;;6.40;98.20;;;;;;1882138;76;21460;-62